Krabi, Thailand

1:12 PM ICT on December 11, 2016 (GMT +0700)
Ao Nang Weather Station | | Change Station

Elev 177 ft 8.05 °N, 98.84 °E | Updated 4 seconds ago

Partly Cloudy
Partly Cloudy
87.4 °F
Feels Like 91 °F
N
1.1
Wind Variable Wind from NNE
Gusts 3.0 mph

Today
High -- | Low -- °F
--% Chance of Precip.
Yesterday
High -- | Low -- °F
Precip. -- in
Pressure 29.86 in
Visibility 5.6 miles
Clouds Few 1800 ft
Scattered Clouds 10000 ft
Heat Index 91 °F
Dew Point 69 °F
Humidity 54%
Rainfall 0.00 in
Snow Depth Not available.
6:27 AM 6:07 PM
Waxing Gibbous, 89% visible
METAR VTSP 110600Z 30006KT 230V010 9000 FEW018 SCT100 30/21 Q1011 NOSIG
Pressure 29.86 in
Visibility 5.6 miles
Clouds Few 1800 ft
Scattered Clouds 10000 ft
Heat Index 91 °F
Dew Point 69 °F
Humidity 54%
Rainfall 0.00 in
Snow Depth Not available.
6:27 AM 6:07 PM
Waxing Gibbous, 89% visible
METAR VTSP 110600Z 30006KT 230V010 9000 FEW018 SCT100 30/21 Q1011 NOSIG

10-Day Weather Forecast

No radar image for this location.
×

Almanac

Astronomy

Dec. 11, 2016 Rise Set
Actual Time
Civil Twilight
Nautical Twilight
Astronomical Twilight
Moon
Length of Visible Light
Length of Day
Tomorrow will be .
, % of the Moon is Illuminated

Today's Extremes

Country Highs Country Lows

Community

WunderPhotos

Upload Photos

1,956,706 photos uploaded!

WunderBlog® & News

Nearby

Air Quality

  Air Quality AQ Index Pollutant
Not available.

Snow Depth

Station Depth Elevation

Earthquake Activity

City Distance Mag. Time & Date
Minimum magnitude displayed is 2.5.

Coastal Water Temperatures

Place Temperature

Stations

Nearby Weather Stations

Station Location Temp. Windchill Dew Point Humidity Wind Precip. Elev Updated Type